Yu_ka — JD2254 — position and weather

sailwx.info

Track history (hours):
 
Tides and Currents Weather Stations Pressure Air Temp Water Temp Dewpoint Dewpoint Depression Visibility Wind Speed Wind Dir Waves Ship Positions

Yu_ka

Last reported at 2017-Dec-15 19:15 UTC. Time now 2017-Dec-16 07:04 UTC.
Position N 35°01' E 140°11'.

Length 76 m; draft 3.9 m.

Type: Cargo ship. MMSI: 431402044.

Date/timePositionNaut miles runAvg speedWind from/ knotsBaromVisibWave heightAir tempDewpointWater temp
2017-Dec-15 19:15N 35°01' E 140°11'314.2
2017-Dec-15 19:00N 34°59' E 140°08'1612.9
2017-Dec-15 17:48N 34°52' E 139°51'412.4
2017-Dec-15 17:30N 34°54' E 139°47'911.1
2017-Dec-15 16:40N 35°03' E 139°44'212.0
2017-Dec-15 16:30N 35°05' E 139°44'612.8
2017-Dec-15 16:01N 35°11' E 139°46'611.6
2017-Dec-15 15:30N 35°17' E 139°45'611.7
2017-Dec-15 15:00N 35°22' E 139°42'2 4.8
2017-Dec-15 14:30N 35°24' E 139°41'0 0.0
2017-Dec-15 14:01N 35°24' E 139°41'1 1.7
2017-Dec-15 13:30N 35°24' E 139°40'0 0.4
2017-Dec-15 13:00N 35°24' E 139°40'1 1.5
2017-Dec-15 12:31N 35°23' E 139°40'0 0.0
2017-Dec-15 12:00N 35°23' E 139°40'0 0.0
2017-Dec-15 11:30N 35°23' E 139°40'0 0.0
2017-Dec-15 11:00N 35°23' E 139°40'0 0.0
2017-Dec-15 10:30N 35°23' E 139°40'0 0.0
2017-Dec-15 10:00N 35°23' E 139°40'0 0.0
2017-Dec-15 09:31N 35°23' E 139°40'0 0.0
2017-Dec-15 09:00N 35°23' E 139°40'0 0.0
2017-Dec-15 08:31N 35°23' E 139°40'0 0.0
2017-Dec-15 08:01N 35°23' E 139°40'0 0.0
2017-Dec-15 07:30N 35°23' E 139°40'0 0.0
2017-Dec-15 07:00N 35°23' E 139°40'0 0.0
2017-Dec-15 06:31N 35°23' E 139°40'0 0.0
2017-Dec-15 06:01N 35°23' E 139°40'0 0.1
2017-Dec-15 05:30N 35°23' E 139°40'0 0.1
2017-Dec-15 05:00N 35°23' E 139°40'0 0.0
2017-Dec-15 04:31N 35°23' E 139°40'0 0.0
2017-Dec-15 04:00N 35°23' E 139°40'5 3.6
2017-Dec-15 02:31N 35°27' E 139°44'9 6.0
2017-Dec-15 01:00N 35°36' E 139°46'0 0.0
2017-Dec-15 00:10N 35°36' E 139°46'42 7.2
2017-Dec-14 18:21N 34°58' E 140°07'5 0.1
2017-Dec-12 15:54N 35°00' E 140°12'512.7
2017-Dec-12 15:30N 34°58' E 140°07'1512.1
2017-Dec-12 14:16N 34°52' E 139°49'312.5
2017-Dec-12 13:59N 34°54' E 139°46'1211.1
2017-Dec-12 12:54N 35°06' E 139°44'511.6
2017-Dec-12 12:30N 35°11' E 139°46'611.2
2017-Dec-12 12:00N 35°16' E 139°46'611.3
2017-Dec-12 11:31N 35°21' E 139°42'611.1
2017-Dec-12 11:01N 35°27' E 139°42'1 1.2
2017-Dec-12 10:28N 35°26' E 139°41'0 0.0
2017-Dec-12 09:58N 35°26' E 139°41'0 0.0
2017-Dec-12 09:28N 35°26' E 139°41'0 0.0
2017-Dec-12 08:55N 35°26' E 139°41'0 0.0
2017-Dec-12 08:28N 35°26' E 139°41'0 0.0
2017-Dec-12 07:58N 35°26' E 139°41'0 0.0
2017-Dec-12 07:25N 35°26' E 139°41'0 0.4
2017-Dec-12 07:01N 35°26' E 139°41'1 2.9
2017-Dec-12 06:31N 35°28' E 139°42'0 0.0
2017-Dec-12 06:01N 35°28' E 139°42'0 0.0
2017-Dec-12 05:28N 35°28' E 139°42'0 0.0
2017-Dec-12 04:58N 35°28' E 139°42'0 0.0
2017-Dec-12 04:30N 35°28' E 139°42'3 6.6
2017-Dec-12 04:00N 35°25' E 139°44'2 3.5
2017-Dec-12 03:23N 35°23' E 139°45'0 0.0
2017-Dec-12 02:59N 35°23' E 139°45'0 0.0
2017-Dec-12 02:29N 35°23' E 139°45'0 0.0
2017-Dec-12 01:47N 35°23' E 139°45'0 0.0
2017-Dec-12 01:26N 35°23' E 139°45'0 0.1
2017-Dec-12 00:59N 35°23' E 139°45'0 0.0
2017-Dec-12 00:29N 35°23' E 139°45'0 0.1
2017-Dec-11 23:59N 35°23' E 139°45'0 0.1
2017-Dec-11 23:29N 35°23' E 139°45'0 0.1
2017-Dec-11 22:59N 35°23' E 139°45'0 0.0
2017-Dec-11 22:30N 35°23' E 139°45'0 0.1
2017-Dec-11 22:00N 35°23' E 139°45'0 0.0
2017-Dec-11 21:30N 35°23' E 139°45'0 0.0
2017-Dec-11 21:00N 35°23' E 139°45'0 0.0
2017-Dec-11 20:31N 35°23' E 139°45'0 0.0
2017-Dec-11 20:00N 35°23' E 139°45'0 0.0
2017-Dec-11 19:30N 35°23' E 139°45'0 0.0
2017-Dec-11 19:00N 35°23' E 139°45'0 0.0
2017-Dec-11 18:30N 35°23' E 139°45'0 0.0
2017-Dec-11 18:00N 35°23' E 139°45'0 0.1
2017-Dec-11 17:31N 35°23' E 139°45'0 0.1
2017-Dec-11 17:01N 35°23' E 139°45'0 0.0
2017-Dec-11 16:30N 35°23' E 139°45'0 0.0
2017-Dec-11 16:00N 35°23' E 139°45'0 0.1
2017-Dec-11 15:30N 35°23' E 139°45'0 0.1
2017-Dec-11 15:00N 35°23' E 139°45'0 0.0
2017-Dec-11 14:30N 35°23' E 139°45'0 0.0
2017-Dec-11 14:00N 35°23' E 139°45'0 0.0
2017-Dec-11 13:31N 35°23' E 139°45'0 0.1
2017-Dec-11 13:00N 35°23' E 139°45'0 0.1
2017-Dec-11 12:31N 35°23' E 139°45'0 0.0
2017-Dec-11 12:00N 35°23' E 139°45'0 0.0
2017-Dec-11 11:30N 35°23' E 139°45'0 0.0
2017-Dec-11 11:00N 35°23' E 139°45'0 0.0
2017-Dec-11 10:30N 35°23' E 139°45'0 0.0
2017-Dec-11 10:01N 35°23' E 139°45'0 0.0
2017-Dec-11 09:31N 35°23' E 139°45'0 0.1
2017-Dec-11 09:01N 35°23' E 139°45'0 0.1
2017-Dec-11 08:30N 35°23' E 139°45'0 0.0
2017-Dec-11 08:00N 35°23' E 139°45'0 0.0
2017-Dec-11 07:31N 35°23' E 139°45'0 0.0
2017-Dec-11 07:00N 35°23' E 139°45'0 0.0
2017-Dec-11 06:30N 35°23' E 139°45'0 0.0
2017-Dec-11 06:00N 35°23' E 139°45'0 0.0
2017-Dec-11 05:31N 35°23' E 139°45'0 0.0
2017-Dec-11 05:01N 35°23' E 139°45'0 0.1
2017-Dec-11 04:31N 35°23' E 139°45'0 0.1
2017-Dec-11 04:00N 35°23' E 139°45'0 0.0
2017-Dec-11 03:30N 35°23' E 139°45'0 0.0
2017-Dec-11 03:00N 35°23' E 139°45'0 0.0
2017-Dec-11 02:31N 35°23' E 139°45'0 0.0
2017-Dec-11 02:01N 35°23' E 139°45'0 0.0
2017-Dec-11 01:31N 35°23' E 139°45'0 0.1
2017-Dec-11 00:55N 35°23' E 139°45'0 0.1
2017-Dec-11 00:31N 35°23' E 139°45'0 0.1
2017-Dec-11 00:01N 35°23' E 139°45'0 0.0
2017-Dec-10 23:22N 35°23' E 139°45'0 0.0
2017-Dec-10 22:55N 35°23' E 139°45'0 0.0
2017-Dec-10 22:31N 35°23' E 139°45'0 0.1
2017-Dec-10 21:58N 35°23' E 139°45'0 0.1
2017-Dec-10 21:31N 35°23' E 139°45'0 0.0
2017-Dec-10 20:58N 35°23' E 139°45'0 0.0
2017-Dec-10 20:28N 35°23' E 139°45'0 0.6
2017-Dec-10 20:01N 35°23' E 139°45'510.0
2017-Dec-10 19:30N 35°18' E 139°45'611.4
2017-Dec-10 19:00N 35°12' E 139°47'612.1
2017-Dec-10 18:30N 35°06' E 139°45'611.7
2017-Dec-10 18:00N 35°01' E 139°44'7 8.8
2017-Dec-10 17:10N 34°53' E 139°46'  
Track history (hours):
 
Tides and Currents Weather Stations Pressure Air Temp Water Temp Dewpoint Dewpoint Depression Visibility Wind Speed Wind Dir Waves Ship Positions

Yu_ka

Last reported at 2017-Dec-15 19:15 UTC. Time now 2017-Dec-16 07:04 UTC.
Position N 35°01' E 140°11'.

Length 76 m; draft 3.9 m.

Type: Cargo ship. MMSI: 431402044.

Date/timePositionNaut miles runAvg speedWind from/ knotsBaromVisibWave heightAir tempDewpointWater temp
2017-Dec-15 19:15N 35°01' E 140°11'314.2
2017-Dec-15 19:00N 34°59' E 140°08'1612.9
2017-Dec-15 17:48N 34°52' E 139°51'412.4
2017-Dec-15 17:30N 34°54' E 139°47'911.1
2017-Dec-15 16:40N 35°03' E 139°44'212.0
2017-Dec-15 16:30N 35°05' E 139°44'612.8
2017-Dec-15 16:01N 35°11' E 139°46'611.6
2017-Dec-15 15:30N 35°17' E 139°45'611.7
2017-Dec-15 15:00N 35°22' E 139°42'2 4.8
2017-Dec-15 14:30N 35°24' E 139°41'0 0.0
2017-Dec-15 14:01N 35°24' E 139°41'1 1.7
2017-Dec-15 13:30N 35°24' E 139°40'0 0.4
2017-Dec-15 13:00N 35°24' E 139°40'1 1.5
2017-Dec-15 12:31N 35°23' E 139°40'0 0.0
2017-Dec-15 12:00N 35°23' E 139°40'0 0.0
2017-Dec-15 11:30N 35°23' E 139°40'0 0.0
2017-Dec-15 11:00N 35°23' E 139°40'0 0.0
2017-Dec-15 10:30N 35°23' E 139°40'0 0.0
2017-Dec-15 10:00N 35°23' E 139°40'0 0.0
2017-Dec-15 09:31N 35°23' E 139°40'0 0.0
2017-Dec-15 09:00N 35°23' E 139°40'0 0.0
2017-Dec-15 08:31N 35°23' E 139°40'0 0.0
2017-Dec-15 08:01N 35°23' E 139°40'0 0.0
2017-Dec-15 07:30N 35°23' E 139°40'0 0.0
2017-Dec-15 07:00N 35°23' E 139°40'0 0.0
2017-Dec-15 06:31N 35°23' E 139°40'0 0.0
2017-Dec-15 06:01N 35°23' E 139°40'0 0.1
2017-Dec-15 05:30N 35°23' E 139°40'0 0.1
2017-Dec-15 05:00N 35°23' E 139°40'0 0.0
2017-Dec-15 04:31N 35°23' E 139°40'0 0.0
2017-Dec-15 04:00N 35°23' E 139°40'5 3.6
2017-Dec-15 02:31N 35°27' E 139°44'9 6.0
2017-Dec-15 01:00N 35°36' E 139°46'0 0.0
2017-Dec-15 00:10N 35°36' E 139°46'42 7.2
2017-Dec-14 18:21N 34°58' E 140°07'5 0.1
2017-Dec-12 15:54N 35°00' E 140°12'512.7
2017-Dec-12 15:30N 34°58' E 140°07'1512.1
2017-Dec-12 14:16N 34°52' E 139°49'312.5
2017-Dec-12 13:59N 34°54' E 139°46'1211.1
2017-Dec-12 12:54N 35°06' E 139°44'511.6
2017-Dec-12 12:30N 35°11' E 139°46'611.2
2017-Dec-12 12:00N 35°16' E 139°46'611.3
2017-Dec-12 11:31N 35°21' E 139°42'611.1
2017-Dec-12 11:01N 35°27' E 139°42'1 1.2
2017-Dec-12 10:28N 35°26' E 139°41'0 0.0
2017-Dec-12 09:58N 35°26' E 139°41'0 0.0
2017-Dec-12 09:28N 35°26' E 139°41'0 0.0
2017-Dec-12 08:55N 35°26' E 139°41'0 0.0
2017-Dec-12 08:28N 35°26' E 139°41'0 0.0
2017-Dec-12 07:58N 35°26' E 139°41'0 0.0
2017-Dec-12 07:25N 35°26' E 139°41'0 0.4
2017-Dec-12 07:01N 35°26' E 139°41'1 2.9
2017-Dec-12 06:31N 35°28' E 139°42'0 0.0
2017-Dec-12 06:01N 35°28' E 139°42'0 0.0
2017-Dec-12 05:28N 35°28' E 139°42'0 0.0
2017-Dec-12 04:58N 35°28' E 139°42'0 0.0
2017-Dec-12 04:30N 35°28' E 139°42'3 6.6
2017-Dec-12 04:00N 35°25' E 139°44'2 3.5
2017-Dec-12 03:23N 35°23' E 139°45'0 0.0
2017-Dec-12 02:59N 35°23' E 139°45'0 0.0
2017-Dec-12 02:29N 35°23' E 139°45'0 0.0
2017-Dec-12 01:47N 35°23' E 139°45'0 0.0
2017-Dec-12 01:26N 35°23' E 139°45'0 0.1
2017-Dec-12 00:59N 35°23' E 139°45'0 0.0
2017-Dec-12 00:29N 35°23' E 139°45'0 0.1
2017-Dec-11 23:59N 35°23' E 139°45'0 0.1
2017-Dec-11 23:29N 35°23' E 139°45'0 0.1
2017-Dec-11 22:59N 35°23' E 139°45'0 0.0
2017-Dec-11 22:30N 35°23' E 139°45'0 0.1
2017-Dec-11 22:00N 35°23' E 139°45'0 0.0
2017-Dec-11 21:30N 35°23' E 139°45'0 0.0
2017-Dec-11 21:00N 35°23' E 139°45'0 0.0
2017-Dec-11 20:31N 35°23' E 139°45'0 0.0
2017-Dec-11 20:00N 35°23' E 139°45'0 0.0
2017-Dec-11 19:30N 35°23' E 139°45'0 0.0
2017-Dec-11 19:00N 35°23' E 139°45'0 0.0
2017-Dec-11 18:30N 35°23' E 139°45'0 0.0
2017-Dec-11 18:00N 35°23' E 139°45'0 0.1
2017-Dec-11 17:31N 35°23' E 139°45'0 0.1
2017-Dec-11 17:01N 35°23' E 139°45'0 0.0
2017-Dec-11 16:30N 35°23' E 139°45'0 0.0
2017-Dec-11 16:00N 35°23' E 139°45'0 0.1
2017-Dec-11 15:30N 35°23' E 139°45'0 0.1
2017-Dec-11 15:00N 35°23' E 139°45'0 0.0
2017-Dec-11 14:30N 35°23' E 139°45'0 0.0
2017-Dec-11 14:00N 35°23' E 139°45'0 0.0
2017-Dec-11 13:31N 35°23' E 139°45'0 0.1
2017-Dec-11 13:00N 35°23' E 139°45'0 0.1
2017-Dec-11 12:31N 35°23' E 139°45'0 0.0
2017-Dec-11 12:00N 35°23' E 139°45'0 0.0
2017-Dec-11 11:30N 35°23' E 139°45'0 0.0
2017-Dec-11 11:00N 35°23' E 139°45'0 0.0
2017-Dec-11 10:30N 35°23' E 139°45'0 0.0
2017-Dec-11 10:01N 35°23' E 139°45'0 0.0
2017-Dec-11 09:31N 35°23' E 139°45'0 0.1
2017-Dec-11 09:01N 35°23' E 139°45'0 0.1
2017-Dec-11 08:30N 35°23' E 139°45'0 0.0
2017-Dec-11 08:00N 35°23' E 139°45'0 0.0
2017-Dec-11 07:31N 35°23' E 139°45'0 0.0
2017-Dec-11 07:00N 35°23' E 139°45'0 0.0
2017-Dec-11 06:30N 35°23' E 139°45'0 0.0
2017-Dec-11 06:00N 35°23' E 139°45'0 0.0
2017-Dec-11 05:31N 35°23' E 139°45'0 0.0
2017-Dec-11 05:01N 35°23' E 139°45'0 0.1
2017-Dec-11 04:31N 35°23' E 139°45'0 0.1
2017-Dec-11 04:00N 35°23' E 139°45'0 0.0
2017-Dec-11 03:30N 35°23' E 139°45'0 0.0
2017-Dec-11 03:00N 35°23' E 139°45'0 0.0
2017-Dec-11 02:31N 35°23' E 139°45'0 0.0
2017-Dec-11 02:01N 35°23' E 139°45'0 0.0
2017-Dec-11 01:31N 35°23' E 139°45'0 0.1
2017-Dec-11 00:55N 35°23' E 139°45'0 0.1
2017-Dec-11 00:31N 35°23' E 139°45'0 0.1
2017-Dec-11 00:01N 35°23' E 139°45'0 0.0
2017-Dec-10 23:22N 35°23' E 139°45'0 0.0
2017-Dec-10 22:55N 35°23' E 139°45'0 0.0
2017-Dec-10 22:31N 35°23' E 139°45'0 0.1
2017-Dec-10 21:58N 35°23' E 139°45'0 0.1
2017-Dec-10 21:31N 35°23' E 139°45'0 0.0
2017-Dec-10 20:58N 35°23' E 139°45'0 0.0
2017-Dec-10 20:28N 35°23' E 139°45'0 0.6
2017-Dec-10 20:01N 35°23' E 139°45'510.0
2017-Dec-10 19:30N 35°18' E 139°45'611.4
2017-Dec-10 19:00N 35°12' E 139°47'612.1
2017-Dec-10 18:30N 35°06' E 139°45'611.7
2017-Dec-10 18:00N 35°01' E 139°44'7 8.8
2017-Dec-10 17:10N 34°53' E 139°46'  

Dump ship's entire track history